Disclaimer

Please do not use the information listed here in-flight or in-navigation, as they are not provided to us by the airports but are provided by volunteers, so they might be outdated.

Search


Regions


Airport information page

Radio informations:
Tower (TWR) - 119.5 MHz

Airport informations:
Latitude: 59° 22' 44.16" N
Longitude: 010° 47' 07.40" E
Elevation: 174 feet - 53 meters
Operating hours: Remarks
Operating agency: Military
Timezone: UTC+1(+2DT) - Last Sunday in March to last Sunday in October
Fuel: JP-8, SemiKeroscene MIL Spec T-83133, without icing inhibitor

100/130 MIL Spec, low lead, aviation gasoline (BLUE)

Runway information:
12/30 - 8012 x 148 feet< - >2442 x 45 meters

Recent METARs:
ENRY 151320Z 03005KT 9999 -SN FEW034 OVC055 M04/M06 Q1032 RESG
ENRY 151350Z 04005KT 9999 -SN BKN034 M03/M05 Q1032
ENRY 151420Z 06006KT 9999 BKN024 OVC032 M03/M05 Q1032

Airport on the map: